Time;durP1;ratioP1;P1;durP2;ratioP2;P2;SDS_P1;SDS_P2;PMS_P1;PMS_P2;Temp;Humidity;BMP_temperature;BMP_pressure;BME280_temperature;BME280_humidity;BME280_pressure;Samples;Min_cycle;Max_cycle;Signal;HPM_P1;HPM_P2
2021/05/16 00:00:20;;;;;;;4.30;1.63;;;9.60;99.90;;;;;;5034828;28;20446;-73
2021/05/16 00:02:46;;;;;;;4.05;1.58;;;9.70;99.90;;;;;;5052345;28;20025;-72
2021/05/16 00:05:13;;;;;;;3.72;1.70;;;9.60;99.90;;;;;;5052359;28;20029;-73
2021/05/16 00:07:40;;;;;;;4.07;1.60;;;9.70;99.90;;;;;;5051937;28;20074;-73
2021/05/16 00:10:08;;;;;;;5.43;1.73;;;9.70;99.90;;;;;;5067380;28;20021;-73
2021/05/16 00:12:35;;;;;;;3.88;1.88;;;9.60;99.90;;;;;;5052200;28;20025;-73
2021/05/16 00:15:01;;;;;;;3.33;1.70;;;9.70;99.90;;;;;;5052124;28;20484;-73
2021/05/16 00:17:27;;;;;;;4.88;1.90;;;9.70;99.90;;;;;;5051916;28;20025;-73
2021/05/16 00:19:53;;;;;;;3.42;1.40;;;9.70;99.90;;;;;;5051996;28;20025;-74
2021/05/16 00:22:18;;;;;;;4.25;1.67;;;9.70;99.90;;;;;;5051718;28;20021;-72
2021/05/16 00:24:44;;;;;;;1.90;1.70;;;9.70;99.90;;;;;;5052089;28;20029;-74
2021/05/16 00:27:10;;;;;;;4.72;2.10;;;9.70;99.90;;;;;;5051790;28;20037;-73
2021/05/16 00:29:35;;;;;;;5.18;1.77;;;9.70;99.90;;;;;;5051770;28;20037;-74
2021/05/16 00:32:01;;;;;;;2.38;1.75;;;9.60;99.90;;;;;;5051889;28;20053;-73
2021/05/16 00:34:26;;;;;;;4.07;1.90;;;9.60;99.90;;;;;;5051822;28;20029;-74
2021/05/16 00:36:52;;;;;;;4.18;1.58;;;9.60;99.90;;;;;;5051602;28;20032;-74
2021/05/16 00:39:18;;;;;;;3.53;1.70;;;9.60;99.90;;;;;;5048747;28;20021;-73
2021/05/16 00:41:43;;;;;;;4.70;1.73;;;9.60;99.90;;;;;;5052068;28;20392;-72
2021/05/16 00:44:09;;;;;;;4.25;1.80;;;9.60;99.90;;;;;;5051804;28;20518;-71
2021/05/16 00:46:35;;;;;;;3.13;1.95;;;9.60;99.90;;;;;;5051482;28;20032;-73
2021/05/16 00:49:01;;;;;;;5.63;1.90;;;9.60;99.90;;;;;;5051291;28;20541;-72
2021/05/16 00:51:26;;;;;;;3.35;2.00;;;9.50;99.90;;;;;;5051361;28;20048;-73
2021/05/16 00:53:52;;;;;;;3.45;1.95;;;9.60;99.90;;;;;;5051302;28;20048;-72
2021/05/16 00:56:18;;;;;;;4.53;2.00;;;9.50;99.90;;;;;;5051790;28;20067;-73
2021/05/16 00:58:43;;;;;;;3.50;1.73;;;9.60;99.90;;;;;;5041430;28;20035;-73
2021/05/16 01:01:10;;;;;;;3.40;2.10;;;9.60;99.90;;;;;;5038915;28;20057;-73
2021/05/16 01:03:37;;;;;;;5.20;1.85;;;9.60;99.90;;;;;;5051574;28;20032;-73
2021/05/16 01:06:03;;;;;;;4.53;2.30;;;9.60;99.90;;;;;;5051358;28;20021;-73
2021/05/16 01:08:29;;;;;;;4.32;2.10;;;9.70;99.90;;;;;;5051033;28;20021;-74
2021/05/16 01:10:54;;;;;;;6.50;2.10;;;9.70;99.90;;;;;;5050941;28;20031;-73
2021/05/16 01:13:20;;;;;;;5.50;2.45;;;9.70;99.90;;;;;;5035004;28;20561;-74
2021/05/16 01:15:46;;;;;;;3.88;1.77;;;9.60;99.90;;;;;;5051423;28;20017;-74
2021/05/16 01:18:14;;;;;;;3.55;1.85;;;9.50;99.90;;;;;;5051323;28;20021;-74
2021/05/16 01:20:43;;;;;;;4.88;2.30;;;9.50;99.90;;;;;;5051065;28;20507;-74
2021/05/16 01:23:12;;;;;;;4.75;2.25;;;9.50;99.90;;;;;;5044171;28;20040;-74
2021/05/16 01:25:40;;;;;;;7.65;2.83;;;9.50;99.90;;;;;;5051154;28;20029;-74
2021/05/16 01:28:07;;;;;;;8.98;2.22;;;9.50;99.90;;;;;;5033176;28;20032;-74
2021/05/16 01:30:33;;;;;;;4.05;2.05;;;9.50;99.90;;;;;;5051049;28;20032;-74
2021/05/16 01:32:59;;;;;;;3.88;2.13;;;9.50;99.90;;;;;;5051060;28;20079;-73
2021/05/16 01:35:25;;;;;;;4.85;2.20;;;9.50;99.90;;;;;;5051250;28;20061;-74
2021/05/16 01:37:51;;;;;;;5.15;2.25;;;9.50;99.90;;;;;;5035550;28;20106;-73
2021/05/16 01:40:20;;;;;;;6.93;2.25;;;9.50;99.90;;;;;;5050906;28;20043;-73
2021/05/16 01:42:49;;;;;;;3.60;2.20;;;9.50;99.90;;;;;;5041408;28;20037;-74
2021/05/16 01:45:17;;;;;;;6.93;2.50;;;9.50;99.90;;;;;;5041551;28;20032;-73
2021/05/16 01:47:43;;;;;;;3.25;2.20;;;9.50;99.90;;;;;;5050904;28;20053;-73
2021/05/16 01:50:11;;;;;;;6.07;3.05;;;9.50;99.90;;;;;;5033190;28;20049;-74
2021/05/16 01:52:39;;;;;;;6.15;2.30;;;9.60;99.90;;;;;;5050897;28;20104;-74
2021/05/16 01:55:06;;;;;;;5.90;2.22;;;9.50;99.90;;;;;;5051098;28;20025;-74
2021/05/16 01:57:32;;;;;;;5.13;2.28;;;9.70;99.90;;;;;;5032951;28;20025;-73
2021/05/16 01:59:59;;;;;;;4.18;2.53;;;9.70;99.90;;;;;;5033158;28;20029;-72
2021/05/16 02:02:25;;;;;;;5.88;2.50;;;9.60;99.90;;;;;;5050984;28;20025;-73
2021/05/16 02:04:52;;;;;;;5.97;2.50;;;9.60;99.90;;;;;;5033274;28;20025;-73
2021/05/16 02:07:17;;;;;;;4.32;2.35;;;9.60;99.90;;;;;;5050880;28;20033;-73
2021/05/16 02:09:43;;;;;;;6.78;2.33;;;9.70;99.90;;;;;;5033073;28;20032;-72
2021/05/16 02:12:09;;;;;;;5.22;2.60;;;9.70;99.90;;;;;;5050956;28;20017;-73
2021/05/16 02:14:35;;;;;;;4.82;2.63;;;9.60;99.90;;;;;;5050966;28;20021;-74
2021/05/16 02:17:04;;;;;;;4.55;2.50;;;9.60;99.90;;;;;;5050780;28;20082;-74
2021/05/16 02:19:30;;;;;;;6.20;2.75;;;9.60;99.90;;;;;;5032904;28;20032;-74
2021/05/16 02:21:55;;;;;;;5.82;2.75;;;9.70;99.90;;;;;;5052616;28;20029;-74
2021/05/16 02:24:21;;;;;;;6.13;2.60;;;9.60;99.90;;;;;;5054453;28;20162;-73
2021/05/16 02:26:48;;;;;;;5.80;2.63;;;9.60;99.90;;;;;;5054311;28;20032;-73
2021/05/16 02:29:17;;;;;;;8.90;3.08;;;9.70;99.90;;;;;;5054155;28;20029;-73
2021/05/16 02:31:43;;;;;;;6.97;2.78;;;9.60;99.90;;;;;;5054302;28;20017;-74
2021/05/16 02:34:09;;;;;;;6.25;2.95;;;9.50;99.90;;;;;;5054630;28;20389;-74
2021/05/16 02:36:35;;;;;;;7.30;2.80;;;9.30;99.90;;;;;;5054209;28;20476;-74
2021/05/16 02:39:02;;;;;;;5.68;2.65;;;9.40;99.90;;;;;;5053894;28;20043;-72
2021/05/16 02:41:28;;;;;;;5.97;2.60;;;9.40;99.90;;;;;;5053863;28;20566;-72
2021/05/16 02:43:53;;;;;;;6.88;2.83;;;9.50;99.90;;;;;;5054018;28;20025;-71
2021/05/16 02:46:19;;;;;;;5.15;3.08;;;9.30;99.90;;;;;;5053859;28;20032;-72
2021/05/16 02:48:44;;;;;;;5.00;2.97;;;9.20;99.90;;;;;;5053818;28;20116;-73
2021/05/16 02:51:10;;;;;;;4.80;2.83;;;9.20;99.90;;;;;;5053550;28;20043;-73
2021/05/16 02:53:36;;;;;;;7.28;2.63;;;9.20;99.90;;;;;;5053869;28;20021;-73
2021/05/16 02:56:02;;;;;;;4.50;3.17;;;9.20;99.90;;;;;;5035938;28;20033;-73
2021/05/16 02:58:27;;;;;;;6.47;3.17;;;9.20;99.90;;;;;;5053692;28;20029;-73
2021/05/16 03:00:53;;;;;;;5.60;2.75;;;9.20;99.90;;;;;;5053468;28;20457;-73
2021/05/16 03:03:19;;;;;;;7.30;3.28;;;9.10;99.90;;;;;;5035817;28;20078;-73
2021/05/16 03:05:45;;;;;;;5.32;3.10;;;9.10;99.90;;;;;;5053641;28;20025;-73
2021/05/16 03:08:10;;;;;;;5.80;3.08;;;9.10;99.90;;;;;;5053617;28;20025;-72
2021/05/16 03:10:36;;;;;;;8.55;2.92;;;9.10;99.90;;;;;;5053369;28;20022;-72
2021/05/16 03:13:01;;;;;;;5.88;2.58;;;9.10;99.90;;;;;;5053518;28;20032;-72
2021/05/16 03:15:27;;;;;;;5.93;2.80;;;9.10;99.90;;;;;;5053388;28;20037;-72
2021/05/16 03:17:53;;;;;;;6.55;2.83;;;9.10;99.90;;;;;;5053348;28;20435;-73
2021/05/16 03:20:18;;;;;;;6.28;2.42;;;9.20;99.90;;;;;;5053070;28;20025;-73
2021/05/16 03:22:44;;;;;;;5.93;2.50;;;9.20;99.90;;;;;;5053206;28;20025;-73
2021/05/16 03:25:11;;;;;;;5.38;2.70;;;9.20;99.90;;;;;;5053088;28;20029;-71
2021/05/16 03:27:37;;;;;;;6.47;2.50;;;9.20;99.90;;;;;;5053032;28;20032;-72
2021/05/16 03:30:05;;;;;;;6.13;2.92;;;9.20;99.90;;;;;;5053029;28;20032;-72
2021/05/16 03:32:31;;;;;;;7.55;2.65;;;9.20;99.90;;;;;;5052730;28;20512;-72
2021/05/16 03:34:56;;;;;;;6.78;2.28;;;9.20;99.90;;;;;;5053001;28;20101;-72
2021/05/16 03:37:22;;;;;;;6.38;2.90;;;9.20;99.90;;;;;;5052933;28;20108;-73
2021/05/16 03:39:47;;;;;;;6.50;2.30;;;9.20;99.90;;;;;;5052680;28;20033;-73
2021/05/16 03:42:13;;;;;;;9.77;2.50;;;9.30;99.90;;;;;;5052851;28;20048;-73
2021/05/16 03:44:38;;;;;;;5.25;2.50;;;9.20;99.90;;;;;;5052814;28;20067;-73
2021/05/16 03:47:04;;;;;;;5.47;2.60;;;9.20;99.90;;;;;;5052719;28;20064;-72
2021/05/16 03:49:29;;;;;;;6.53;2.80;;;9.30;99.90;;;;;;5034610;28;20035;-72
2021/05/16 03:51:55;;;;;;;4.75;2.10;;;9.30;99.90;;;;;;5034838;28;20055;-71
2021/05/16 03:54:20;;;;;;;5.22;2.50;;;9.20;99.90;;;;;;5052664;28;20091;-72
2021/05/16 03:56:46;;;;;;;5.32;2.35;;;9.10;99.90;;;;;;5052619;28;20392;-71
2021/05/16 03:59:12;;;;;;;6.05;2.63;;;9.10;99.90;;;;;;5052242;28;20025;-71
2021/05/16 04:01:37;;;;;;;5.47;2.63;;;9.10;99.90;;;;;;5034591;28;20033;-72
2021/05/16 04:04:03;;;;;;;4.55;2.40;;;9.10;99.90;;;;;;5052560;28;20075;-72
2021/05/16 04:06:29;;;;;;;4.50;2.30;;;9.20;99.90;;;;;;5052392;28;20021;-72
2021/05/16 04:08:55;;;;;;;5.57;2.80;;;9.20;99.90;;;;;;5034640;28;20029;-72
2021/05/16 04:11:20;;;;;;;3.00;2.08;;;9.10;99.90;;;;;;5052214;28;20029;-72
2021/05/16 04:13:46;;;;;;;5.75;2.50;;;9.00;99.90;;;;;;5052368;28;20056;-73
2021/05/16 04:16:12;;;;;;;6.53;2.33;;;9.10;99.90;;;;;;5052368;28;20071;-73
2021/05/16 04:18:38;;;;;;;6.13;2.30;;;9.10;99.90;;;;;;5052131;28;20560;-73
2021/05/16 04:21:05;;;;;;;4.47;2.30;;;9.20;99.90;;;;;;5052015;28;20393;-72
2021/05/16 04:23:31;;;;;;;7.07;2.40;;;9.10;99.90;;;;;;5052006;28;20388;-73
2021/05/16 04:25:56;;;;;;;5.40;2.33;;;9.20;99.90;;;;;;5051825;28;20025;-72
2021/05/16 04:28:22;;;;;;;5.00;2.40;;;9.30;99.90;;;;;;5067236;28;20025;-72
2021/05/16 04:30:47;;;;;;;4.40;2.63;;;9.30;99.90;;;;;;5051868;28;20048;-71
2021/05/16 04:33:15;;;;;;;4.05;2.20;;;9.40;99.90;;;;;;5051955;28;20021;-72
2021/05/16 04:35:40;;;;;;;3.60;1.73;;;9.40;99.90;;;;;;5051884;28;20025;-73
2021/05/16 04:38:06;;;;;;;5.40;2.45;;;9.50;99.90;;;;;;5051839;28;20032;-73
2021/05/16 04:40:31;;;;;;;7.68;2.30;;;9.70;99.90;;;;;;5051629;28;20107;-71
2021/05/16 04:42:57;;;;;;;6.03;2.15;;;9.60;99.90;;;;;;5051750;28;20508;-72
2021/05/16 04:45:23;;;;;;;5.05;2.05;;;9.70;99.90;;;;;;5051105;28;20025;-72
2021/05/16 04:47:48;;;;;;;4.57;2.65;;;9.60;99.90;;;;;;5051678;28;20393;-73
2021/05/16 04:50:15;;;;;;;5.32;2.15;;;9.70;99.90;;;;;;5033771;28;20021;-72
2021/05/16 04:52:41;;;;;;;7.22;2.30;;;9.60;99.90;;;;;;5033731;28;20048;-73
2021/05/16 04:55:07;;;;;;;4.45;2.17;;;9.70;99.90;;;;;;5051693;28;20068;-74
2021/05/16 04:57:33;;;;;;;7.70;2.42;;;9.70;99.90;;;;;;5051517;28;20029;-73
2021/05/16 04:59:58;;;;;;;4.28;2.17;;;9.60;99.90;;;;;;5033641;28;20036;-72
2021/05/16 05:02:24;;;;;;;5.75;2.45;;;9.40;99.90;;;;;;5051635;28;20017;-72
2021/05/16 05:04:51;;;;;;;7.35;2.10;;;9.30;99.90;;;;;;5051593;28;20025;-72
2021/05/16 05:07:17;;;;;;;6.95;2.20;;;9.30;99.90;;;;;;5051377;28;20071;-72
2021/05/16 05:09:42;;;;;;;7.43;2.45;;;9.50;99.90;;;;;;5051364;28;20029;-73
2021/05/16 05:12:08;;;;;;;5.32;1.90;;;9.60;99.90;;;;;;5051593;28;20108;-70
2021/05/16 05:14:34;;;;;;;5.45;2.13;;;9.70;99.90;;;;;;5033548;28;20021;-73
2021/05/16 05:16:59;;;;;;;4.15;2.08;;;9.80;99.90;;;;;;5051283;28;20044;-72
2021/05/16 05:19:25;;;;;;;5.68;2.40;;;9.70;99.90;;;;;;5051232;28;20025;-71
2021/05/16 05:21:51;;;;;;;7.85;2.80;;;9.70;99.90;;;;;;5033410;28;20029;-72
2021/05/16 05:24:16;;;;;;;4.88;2.67;;;9.60;99.90;;;;;;5051294;28;20033;-72
2021/05/16 05:26:42;;;;;;;4.38;2.55;;;9.50;99.90;;;;;;5033150;28;20025;-74
2021/05/16 05:29:08;;;;;;;3.22;2.40;;;9.70;99.90;;;;;;5033202;28;20404;-74
2021/05/16 05:31:33;;;;;;;7.10;2.47;;;9.80;99.90;;;;;;5051258;28;20139;-74
2021/05/16 05:33:59;;;;;;;8.10;2.55;;;9.80;99.90;;;;;;5033358;28;20051;-72
2021/05/16 05:36:27;;;;;;;5.60;2.05;;;10.00;99.90;;;;;;5051140;28;20033;-74
2021/05/16 05:38:53;;;;;;;6.00;2.50;;;10.20;99.90;;;;;;5033149;28;20062;-74
2021/05/16 05:41:18;;;;;;;4.53;1.95;;;10.10;99.90;;;;;;5033108;28;20395;-74
2021/05/16 05:43:44;;;;;;;4.75;2.10;;;10.20;99.90;;;;;;5051048;28;20021;-74
2021/05/16 05:46:10;;;;;;;6.60;2.22;;;10.10;99.90;;;;;;5051079;28;20056;-72
2021/05/16 05:48:35;;;;;;;4.47;2.15;;;10.10;99.90;;;;;;5033329;28;20029;-71
2021/05/16 05:51:01;;;;;;;3.95;2.20;;;10.10;99.90;;;;;;5050626;28;20405;-74
2021/05/16 05:53:26;;;;;;;5.95;2.00;;;10.20;99.90;;;;;;5051126;28;20400;-74
2021/05/16 05:55:52;;;;;;;2.10;1.70;;;10.20;99.90;;;;;;5034779;28;20029;-74
2021/05/16 05:58:17;;;;;;;4.82;2.03;;;10.20;99.90;;;;;;5054910;28;20082;-74
2021/05/16 06:00:43;;;;;;;5.13;2.03;;;10.10;99.90;;;;;;5054571;28;20504;-74
2021/05/16 06:03:08;;;;;;;4.85;1.90;;;10.00;99.90;;;;;;5054822;28;20033;-73
2021/05/16 06:05:34;;;;;;;3.60;1.92;;;10.10;99.90;;;;;;5054542;28;20033;-74
2021/05/16 06:07:59;;;;;;;5.38;2.00;;;10.20;99.90;;;;;;5036893;28;20024;-74
2021/05/16 06:10:26;;;;;;;6.82;2.47;;;10.40;99.90;;;;;;5054297;28;20025;-74
2021/05/16 06:12:52;;;;;;;6.05;2.00;;;10.50;99.90;;;;;;5054561;28;20599;-74
2021/05/16 06:15:19;;;;;;;4.30;1.92;;;10.60;99.90;;;;;;5036600;28;20028;-72
2021/05/16 06:17:45;;;;;;;4.00;1.90;;;10.70;99.90;;;;;;5054317;28;20028;-72
2021/05/16 06:20:11;;;;;;;3.78;1.90;;;10.70;99.90;;;;;;5056675;28;20021;-71
2021/05/16 06:22:36;;;;;;;5.32;1.67;;;10.80;99.90;;;;;;5054140;28;20028;-71
2021/05/16 06:25:03;;;;;;;3.75;1.77;;;10.90;99.90;;;;;;5054160;28;20021;-73
2021/05/16 06:27:29;;;;;;;4.65;2.00;;;10.90;99.90;;;;;;5055107;28;20429;-72
2021/05/16 06:29:55;;;;;;;6.72;2.80;;;10.80;99.90;;;;;;5035965;28;20115;-72
2021/05/16 06:32:21;;;;;;;5.88;2.20;;;10.80;99.90;;;;;;5054250;28;20468;-72
2021/05/16 06:34:46;;;;;;;3.95;2.30;;;10.80;99.90;;;;;;5054138;28;20143;-72
2021/05/16 06:37:12;;;;;;;9.68;3.88;;;10.90;99.90;;;;;;5036130;28;20029;-73
2021/05/16 06:39:37;;;;;;;7.15;3.65;;;10.80;99.90;;;;;;5053959;28;20033;-72
2021/05/16 06:42:03;;;;;;;5.53;2.90;;;10.70;99.90;;;;;;5054239;28;20052;-72
2021/05/16 06:44:28;;;;;;;4.60;2.13;;;10.90;99.90;;;;;;5054027;28;20064;-74
2021/05/16 06:46:54;;;;;;;3.25;2.08;;;10.80;99.90;;;;;;5053845;28;20378;-72
2021/05/16 06:49:19;;;;;;;4.38;1.98;;;10.80;99.90;;;;;;5053631;28;20017;-72
2021/05/16 06:51:45;;;;;;;4.65;1.85;;;10.90;99.90;;;;;;5053698;28;20037;-72
2021/05/16 06:54:11;;;;;;;6.43;2.40;;;11.10;99.90;;;;;;5053927;28;20473;-72
2021/05/16 06:56:37;;;;;;;3.97;2.05;;;11.00;99.90;;;;;;5035753;28;20033;-73
2021/05/16 06:59:04;;;;;;;5.10;2.10;;;10.80;99.90;;;;;;5053290;28;20036;-73
2021/05/16 07:01:30;;;;;;;6.20;2.00;;;10.80;99.90;;;;;;5053806;28;20032;-73
2021/05/16 07:03:55;;;;;;;5.13;2.22;;;10.80;99.90;;;;;;5053645;28;20063;-73
2021/05/16 07:06:21;;;;;;;5.20;1.90;;;10.80;99.90;;;;;;5053687;28;20116;-73
2021/05/16 07:08:47;;;;;;;5.25;2.20;;;10.90;99.90;;;;;;5052904;28;20021;-72
2021/05/16 07:11:13;;;;;;;6.28;2.65;;;10.70;99.90;;;;;;5053358;28;20043;-72
2021/05/16 07:13:39;;;;;;;6.68;2.50;;;10.60;99.90;;;;;;5053446;28;20029;-72
2021/05/16 07:16:05;;;;;;;7.25;2.78;;;10.60;99.90;;;;;;5035538;28;20025;-72
2021/05/16 07:18:31;;;;;;;4.75;2.30;;;10.50;99.90;;;;;;5053155;28;20025;-72
2021/05/16 07:20:56;;;;;;;6.75;2.65;;;10.50;99.90;;;;;;5053053;28;20048;-72
2021/05/16 07:23:22;;;;;;;7.57;2.80;;;10.50;99.90;;;;;;5052666;28;20033;-71
2021/05/16 07:25:47;;;;;;;4.47;2.97;;;10.50;99.90;;;;;;5052728;28;20033;-72
2021/05/16 07:28:13;;;;;;;6.03;2.78;;;10.70;99.90;;;;;;5053009;28;20074;-75
2021/05/16 07:30:39;;;;;;;6.88;2.60;;;10.60;99.90;;;;;;5035042;28;20116;-74
2021/05/16 07:33:04;;;;;;;5.47;2.42;;;10.70;99.90;;;;;;5052975;28;20032;-73
2021/05/16 07:35:30;;;;;;;7.57;2.40;;;10.70;99.90;;;;;;5034875;28;20032;-74
2021/05/16 07:37:55;;;;;;;5.70;2.47;;;10.80;99.90;;;;;;5052471;28;20392;-73
2021/05/16 07:40:21;;;;;;;6.85;3.40;;;10.90;99.90;;;;;;5052653;28;20035;-74
2021/05/16 07:42:50;;;;;;;4.88;2.35;;;10.80;99.90;;;;;;5034690;28;20032;-73
2021/05/16 07:45:17;;;;;;;7.00;2.38;;;10.90;99.90;;;;;;5052600;28;20025;-73
2021/05/16 07:47:42;;;;;;;2.47;1.80;;;10.80;99.90;;;;;;5052646;28;20028;-74
2021/05/16 07:50:10;;;;;;;4.25;2.30;;;10.90;99.90;;;;;;5058033;28;20029;-74
2021/05/16 07:52:36;;;;;;;9.85;2.40;;;11.20;99.90;;;;;;5057312;28;20033;-75
2021/05/16 07:55:01;;;;;;;4.70;2.00;;;11.40;99.90;;;;;;5052509;28;20365;-75
2021/05/16 07:57:28;;;;;;;3.25;1.70;;;11.50;99.90;;;;;;5052302;28;20025;-75
2021/05/16 07:59:53;;;;;;;4.18;2.03;;;11.60;99.90;;;;;;5052231;28;20025;-74
2021/05/16 08:02:20;;;;;;;4.43;2.08;;;11.50;99.90;;;;;;5051955;28;20028;-73
2021/05/16 08:04:45;;;;;;;6.03;2.20;;;11.10;99.90;;;;;;5052048;28;20025;-73
2021/05/16 08:07:11;;;;;;;3.30;2.20;;;11.30;99.90;;;;;;5051970;28;20548;-73
2021/05/16 08:09:36;;;;;;;3.55;2.20;;;11.70;99.90;;;;;;5034148;28;20021;-73
2021/05/16 08:12:03;;;;;;;3.75;2.00;;;11.80;99.90;;;;;;5051966;28;20438;-72
2021/05/16 08:14:28;;;;;;;4.93;1.80;;;11.90;99.90;;;;;;5051529;28;20116;-73
2021/05/16 08:16:55;;;;;;;3.92;2.05;;;11.70;99.90;;;;;;5051720;28;20096;-72
2021/05/16 08:19:21;;;;;;;5.82;2.00;;;11.30;99.90;;;;;;5050437;28;20544;-73
2021/05/16 08:21:46;;;;;;;3.78;1.95;;;11.50;99.90;;;;;;5051818;28;20105;-72
2021/05/16 08:24:13;;;;;;;3.00;2.40;;;11.50;99.90;;;;;;5052207;28;20028;-73
2021/05/16 08:26:39;;;;;;;3.88;1.60;;;11.30;99.90;;;;;;5057816;28;20021;-73
2021/05/16 08:29:05;;;;;;;2.88;1.60;;;11.00;99.90;;;;;;5051894;28;20078;-71
2021/05/16 08:31:35;;;;;;;4.32;2.33;;;11.10;99.90;;;;;;5051608;28;20029;-72
2021/05/16 08:34:02;;;;;;;5.25;2.42;;;11.20;99.90;;;;;;5051410;28;20623;-71
2021/05/16 08:36:30;;;;;;;4.95;2.10;;;11.20;99.90;;;;;;5051468;28;20053;-71
2021/05/16 08:38:56;;;;;;;3.33;2.20;;;11.30;99.90;;;;;;5051507;28;20472;-71
2021/05/16 08:41:21;;;;;;;4.68;2.22;;;11.30;99.90;;;;;;5051335;28;20028;-71
2021/05/16 08:43:47;;;;;;;6.40;3.72;;;11.20;99.90;;;;;;5051466;28;20032;-72
2021/05/16 08:46:12;;;;;;;5.80;2.15;;;11.30;99.90;;;;;;5051239;28;20032;-71
2021/05/16 08:48:39;;;;;;;2.15;1.20;;;10.70;99.90;;;;;;5051094;28;20029;-71
2021/05/16 08:51:06;;;;;;;2.33;1.42;;;10.50;99.90;;;;;;5050683;28;20017;-71
2021/05/16 08:53:33;;;;;;;3.22;1.40;;;10.50;99.90;;;;;;5051511;28;20021;-72
2021/05/16 08:55:59;;;;;;;8.60;4.50;;;10.50;99.90;;;;;;5033604;28;20079;-71
2021/05/16 08:58:25;;;;;;;4.05;3.10;;;10.50;99.90;;;;;;5051183;28;20048;-71
2021/05/16 09:00:50;;;;;;;2.97;2.40;;;10.50;99.90;;;;;;5050952;28;20111;-71
2021/05/16 09:03:17;;;;;;;2.83;2.17;;;10.40;99.90;;;;;;5050892;28;20579;-71
2021/05/16 09:05:45;;;;;;;3.08;1.60;;;10.30;99.90;;;;;;5051077;28;20021;-71
2021/05/16 09:08:20;;;;;;;5.20;2.10;;;10.40;99.90;;;;;;5051496;28;20033;-73
2021/05/16 09:10:50;;;;;;;2.55;1.30;;;10.50;99.90;;;;;;5033023;28;20029;-73
2021/05/16 09:13:17;;;;;;;2.65;1.92;;;10.40;99.90;;;;;;5051076;28;20032;-73
2021/05/16 09:15:58;;;;;;;3.75;3.30;;;10.80;99.90;;;;;;5050518;28;20515;-73
2021/05/16 09:18:38;;;;;;;6.20;2.80;;;10.90;99.90;;;;;;5050884;28;20441;-74
2021/05/16 09:21:40;;;;;;;8.88;5.53;;;11.30;99.90;;;;;;5050784;28;20029;-73
2021/05/16 09:24:09;;;;;;;3.13;2.38;;;11.40;99.90;;;;;;5051380;28;20032;-74
2021/05/16 09:26:53;;;;;;;2.90;1.90;;;11.30;99.90;;;;;;5050644;28;20029;-74
2021/05/16 09:29:46;;;;;;;3.08;1.90;;;11.00;99.90;;;;;;5034616;28;20408;-76
2021/05/16 09:32:11;;;;;;;3.55;2.42;;;10.90;99.90;;;;;;5043256;28;20029;-73
2021/05/16 09:34:40;;;;;;;3.85;2.58;;;10.90;99.90;;;;;;5054093;28;20029;-73
2021/05/16 09:37:07;;;;;;;5.63;2.70;;;10.90;99.90;;;;;;5054062;28;20074;-72
2021/05/16 09:39:35;;;;;;;5.03;3.10;;;11.10;99.90;;;;;;5054544;28;20469;-72
2021/05/16 09:42:09;;;;;;;5.40;3.17;;;11.30;99.90;;;;;;5054850;28;20029;-72
2021/05/16 09:44:38;;;;;;;4.45;2.22;;;11.50;99.90;;;;;;5036869;28;20027;-73
2021/05/16 09:47:23;;;;;;;3.88;1.90;;;11.40;99.90;;;;;;5054519;28;20033;-73
2021/05/16 09:49:54;;;;;;;3.28;1.70;;;11.10;99.90;;;;;;5054898;28;20021;-72
2021/05/16 09:52:24;;;;;;;3.83;2.28;;;11.00;99.90;;;;;;5054601;28;20539;-72
2021/05/16 09:55:04;;;;;;;4.40;2.20;;;11.00;99.90;;;;;;5054630;28;20025;-72
2021/05/16 09:57:33;;;;;;;4.97;2.60;;;11.10;99.90;;;;;;5054389;28;20510;-73
2021/05/16 09:59:58;;;;;;;5.15;2.55;;;11.10;99.90;;;;;;5054235;28;20497;-73
2021/05/16 10:02:27;;;;;;;9.90;4.85;;;11.20;99.90;;;;;;5036441;28;20037;-72
2021/05/16 10:04:53;;;;;;;5.55;4.15;;;11.00;99.90;;;;;;5035223;28;20384;-72
2021/05/16 10:07:24;;;;;;;4.53;2.85;;;11.20;99.90;;;;;;5052995;28;20021;-72
2021/05/16 10:09:52;;;;;;;4.55;2.70;;;11.40;99.90;;;;;;5053578;28;20021;-73
2021/05/16 10:12:19;;;;;;;4.43;1.98;;;12.30;99.90;;;;;;5051307;28;20029;-73
2021/05/16 10:15:25;;;;;;;3.28;1.90;;;13.20;99.90;;;;;;5054056;28;20515;-73
2021/05/16 10:17:53;;;;;;;3.97;2.13;;;13.70;99.90;;;;;;5054236;28;20021;-73
2021/05/16 10:20:21;;;;;;;4.13;2.08;;;13.80;99.90;;;;;;5053724;28;20021;-73
2021/05/16 10:22:56;;;;;;;6.07;2.03;;;12.70;99.90;;;;;;5054171;28;20107;-73
2021/05/16 10:25:41;;;;;;;2.85;1.50;;;12.70;99.90;;;;;;5054236;28;20025;-71
2021/05/16 10:28:07;;;;;;;2.42;1.25;;;12.40;99.90;;;;;;5053000;28;20017;-71
2021/05/16 10:30:33;;;;;;;4.43;2.20;;;12.10;99.90;;;;;;5053501;28;20054;-72
2021/05/16 10:32:59;;;;;;;3.22;2.10;;;12.30;99.90;;;;;;5053370;28;20032;-72
2021/05/16 10:35:27;;;;;;;2.47;1.85;;;12.00;99.90;;;;;;5053747;28;20020;-71
2021/05/16 10:37:54;;;;;;;3.33;1.70;;;11.90;99.90;;;;;;5053726;28;20471;-71
2021/05/16 10:40:23;;;;;;;3.47;1.60;;;12.00;99.90;;;;;;5053521;28;20444;-72
2021/05/16 10:42:51;;;;;;;4.50;1.73;;;12.20;99.90;;;;;;5052631;28;20139;-71
2021/05/16 10:45:21;;;;;;;3.63;2.47;;;12.60;99.90;;;;;;5053286;28;20104;-72
2021/05/16 10:47:53;;;;;;;2.92;2.20;;;13.50;99.90;;;;;;5053066;28;20033;-72
2021/05/16 10:50:26;;;;;;;1.70;1.40;;;13.40;99.90;;;;;;5053251;28;20425;-72
2021/05/16 10:53:08;;;;;;;2.10;1.23;;;12.90;99.90;;;;;;5053212;28;20120;-72
2021/05/16 10:55:54;;;;;;;3.03;1.35;;;12.70;99.90;;;;;;5036698;28;20024;-71
2021/05/16 10:58:32;;;;;;;1.73;1.20;;;12.70;99.90;;;;;;5042468;28;20059;-71
2021/05/16 11:01:05;;;;;;;4.90;1.70;;;12.80;99.90;;;;;;5053284;28;20310;-71
2021/05/16 11:03:58;;;;;;;3.08;1.40;;;13.20;99.90;;;;;;5053519;28;20071;-72
2021/05/16 11:06:43;;;;;;;1.98;1.35;;;13.50;99.90;;;;;;5053420;28;20021;-71
2021/05/16 11:09:14;;;;;;;2.25;1.40;;;13.70;99.90;;;;;;5068038;28;20036;-71
2021/05/16 11:11:41;;;;;;;2.58;1.40;;;13.60;99.90;;;;;;5053370;28;20484;-72
2021/05/16 11:14:13;;;;;;;3.63;1.50;;;14.20;99.90;;;;;;5053284;28;20102;-71
2021/05/16 11:16:43;;;;;;;4.18;1.80;;;14.50;99.90;;;;;;5053639;28;20037;-71
2021/05/16 11:19:08;;;;;;;2.95;1.35;;;14.50;99.90;;;;;;5049972;28;20112;-71
2021/05/16 11:21:34;;;;;;;3.95;1.40;;;14.60;99.90;;;;;;5048399;28;20151;-71
2021/05/16 11:24:00;;;;;;;3.03;1.40;;;14.20;99.90;;;;;;5053161;28;20028;-72
2021/05/16 11:26:28;;;;;;;6.75;1.70;;;14.30;99.90;;;;;;5052944;28;20029;-72
2021/05/16 11:28:57;;;;;;;3.33;1.30;;;14.50;99.90;;;;;;5052422;28;20388;-72
2021/05/16 11:31:27;;;;;;;1.92;1.35;;;14.20;99.90;;;;;;5067861;28;20051;-73
2021/05/16 11:33:55;;;;;;;3.72;1.52;;;13.90;99.90;;;;;;5053081;28;20104;-72
2021/05/16 11:36:30;;;;;;;2.80;1.73;;;13.80;99.90;;;;;;5052847;28;20071;-72
2021/05/16 11:38:57;;;;;;;2.83;1.63;;;14.00;99.90;;;;;;5052841;28;20032;-71
2021/05/16 11:41:35;;;;;;;4.32;1.50;;;14.60;99.90;;;;;;5052538;28;20500;-70
2021/05/16 11:44:03;;;;;;;2.40;1.50;;;14.70;99.90;;;;;;5052834;28;20100;-72
2021/05/16 11:46:39;;;;;;;3.83;1.70;;;14.40;99.90;;;;;;5052639;28;20025;-71
2021/05/16 11:49:05;;;;;;;2.92;1.52;;;14.50;99.90;;;;;;5051528;28;20672;-71
2021/05/16 11:51:32;;;;;;;3.00;1.50;;;14.40;99.90;;;;;;5052068;28;20087;-71
2021/05/16 11:54:03;;;;;;;4.35;1.52;;;14.20;99.90;;;;;;5051775;28;20534;-72
2021/05/16 11:56:34;;;;;;;4.65;1.70;;;14.20;99.90;;;;;;5052536;28;20035;-72
2021/05/16 11:59:01;;;;;;;4.82;1.40;;;14.20;99.90;;;;;;5052249;28;20059;-72
2021/05/16 12:01:33;;;;;;;5.18;1.85;;;14.40;99.90;;;;;;5039779;28;20116;-72
2021/05/16 12:04:00;;;;;;;3.75;1.77;;;14.50;99.90;;;;;;5051992;28;20411;-73
2021/05/16 12:06:28;;;;;;;6.22;1.60;;;14.50;99.90;;;;;;5052150;28;20017;-73
2021/05/16 12:09:01;;;;;;;3.35;1.80;;;14.50;99.90;;;;;;5052092;28;20067;-73
2021/05/16 12:11:29;;;;;;;5.57;2.17;;;15.70;99.90;;;;;;5040729;28;20079;-73
2021/05/16 12:14:24;;;;;;;5.07;1.80;;;16.50;99.90;;;;;;5067622;28;20042;-73
2021/05/16 12:17:00;;;;;;;2.33;1.40;;;16.00;99.90;;;;;;5052058;28;20021;-73
2021/05/16 12:19:35;;;;;;;3.90;1.80;;;15.30;99.90;;;;;;5046315;28;20029;-73
2021/05/16 12:22:18;;;;;;;2.33;1.53;;;15.20;99.90;;;;;;5049514;28;20396;-72
2021/05/16 12:24:46;;;;;;;4.25;1.60;;;15.10;99.90;;;;;;5052079;28;20029;-73
2021/05/16 12:27:13;;;;;;;3.72;1.88;;;14.90;99.90;;;;;;5066860;28;20028;-73
2021/05/16 12:29:40;;;;;;;1.40;0.93;;;14.60;99.90;;;;;;5040376;28;20033;-74
2021/05/16 12:32:08;;;;;;;2.63;1.15;;;14.00;99.90;;;;;;5051939;28;20020;-72
2021/05/16 12:34:33;;;;;;;1.02;0.85;;;13.00;99.90;;;;;;5051780;28;20017;-71
2021/05/16 12:37:03;;;;;;;3.75;1.17;;;12.70;99.90;;;;;;5051923;28;20387;-72
2021/05/16 12:39:43;;;;;;;1.10;0.90;;;12.60;99.90;;;;;;5051588;28;20051;-70
2021/05/16 12:42:32;;;;;;;1.40;0.95;;;12.70;99.90;;;;;;5051714;28;20434;-71
2021/05/16 12:45:24;;;;;;;2.78;1.42;;;12.60;99.90;;;;;;5052077;28;20024;-72
2021/05/16 12:48:19;;;;;;;2.13;1.33;;;13.30;99.90;;;;;;5051541;28;20025;-73
2021/05/16 12:50:54;;;;;;;2.58;1.90;;;14.30;99.90;;;;;;5048622;28;20124;-73
2021/05/16 12:53:26;;;;;;;2.50;1.25;;;15.00;99.90;;;;;;5044600;28;20021;-73